Time;durP1;ratioP1;P1;durP2;ratioP2;P2;SDS_P1;SDS_P2;PMS_P1;PMS_P2;Temp;Humidity;BMP_temperature;BMP_pressure;BME280_temperature;BME280_humidity;BME280_pressure;Samples;Min_cycle;Max_cycle;Signal;HPM_P1;HPM_P2
2023/06/24 00:01:14;;;;;;;76.45;72.50;;;;;;;;;;5011584;28;20040;-64
2023/06/24 00:03:40;;;;;;;66.20;62.80;;;;;;;;;;5012367;28;20034;-64
2023/06/24 00:06:05;;;;;;;65.10;61.55;;;;;;;;;;5016382;28;20030;-63
2023/06/24 00:08:37;;;;;;;58.25;55.20;;;;;;;;;;5012850;28;20120;-64
2023/06/24 00:11:03;;;;;;;46.65;44.25;;;;;;;;;;5010882;28;20029;-63
2023/06/24 00:13:31;;;;;;;28.58;27.00;;;;;;;;;;5011449;28;20030;-63
2023/06/24 00:15:56;;;;;;;23.48;22.08;;;;;;;;;;5014906;28;20038;-63
2023/06/24 00:18:24;;;;;;;21.65;20.48;;;;;;;;;;5016206;28;20034;-63
2023/06/24 00:20:50;;;;;;;19.38;18.25;;;;;;;;;;5011557;28;20045;-63
2023/06/24 00:23:18;;;;;;;19.33;18.13;;;;;;;;;;5011466;28;20192;-62
2023/06/24 00:25:43;;;;;;;25.30;23.88;;;;;;;;;;5013283;28;20116;-62
2023/06/24 00:28:08;;;;;;;18.02;17.02;;;;;;;;;;5016492;28;20120;-62
2023/06/24 00:30:34;;;;;;;24.17;22.83;;;;;;;;;;5014249;28;20056;-62
2023/06/24 00:32:59;;;;;;;33.38;31.58;;;;;;;;;;5014456;28;20446;-62
2023/06/24 00:35:24;;;;;;;23.10;21.77;;;;;;;;;;5016748;28;20436;-62
2023/06/24 00:37:50;;;;;;;34.42;32.53;;;;;;;;;;5011782;28;20044;-62
2023/06/24 00:40:16;;;;;;;30.25;28.60;;;;;;;;;;5013739;28;20042;-63
2023/06/24 00:42:44;;;;;;;29.80;28.23;;;;;;;;;;5010681;28;20121;-63
2023/06/24 00:45:10;;;;;;;42.40;40.22;;;;;;;;;;5011618;28;20372;-63
2023/06/24 00:47:36;;;;;;;50.13;47.55;;;;;;;;;;5016380;28;20140;-62
2023/06/24 00:50:02;;;;;;;63.25;60.00;;;;;;;;;;5017187;28;20116;-62
2023/06/24 00:52:27;;;;;;;76.28;72.40;;;;;;;;;;5010753;28;20037;-62
2023/06/24 00:54:52;;;;;;;137.68;130.55;;;;;;;;;;5015757;28;20092;-61
2023/06/24 00:57:23;;;;;;;141.90;134.63;;;;;;;;;;5012956;28;20061;-61
2023/06/24 00:59:53;;;;;;;158.10;150.00;;;;;;;;;;5011687;28;20046;-62
2023/06/24 01:02:20;;;;;;;161.95;153.68;;;;;;;;;;5013510;28;20434;-63
2023/06/24 01:04:46;;;;;;;172.60;163.85;;;;;;;;;;5015565;28;20252;-62
2023/06/24 01:07:12;;;;;;;155.88;147.93;;;;;;;;;;5012431;28;20033;-63
2023/06/24 01:09:37;;;;;;;149.93;142.23;;;;;;;;;;5013596;28;20044;-63
2023/06/24 01:12:03;;;;;;;146.52;139.13;;;;;;;;;;5010087;28;20578;-63
2023/06/24 01:14:29;;;;;;;162.60;154.32;;;;;;;;;;5009183;28;20038;-62
2023/06/24 01:17:12;;;;;;;157.57;149.45;;;;;;;;;;5012033;28;20041;-63
2023/06/24 01:19:50;;;;;;;89.28;84.72;;;;;;;;;;5013536;28;20497;-62
2023/06/24 01:22:27;;;;;;;65.88;62.53;;;;;;;;;;5010688;28;20048;-63
2023/06/24 01:25:08;;;;;;;84.28;79.97;;;;;;;;;;5009132;28;20326;-62
2023/06/24 01:28:04;;;;;;;93.00;88.25;;;;;;;;;;5010717;28;20099;-63
2023/06/24 01:31:06;;;;;;;78.70;74.65;;;;;;;;;;5011553;28;20043;-63
2023/06/24 01:33:42;;;;;;;152.68;145.00;;;;;;;;;;5002912;28;20119;-62
2023/06/24 01:36:11;;;;;;;150.80;143.20;;;;;;;;;;5014085;28;20113;-63
2023/06/24 01:38:44;;;;;;;207.52;197.18;;;;;;;;;;5012270;28;20030;-64
2023/06/24 01:41:15;;;;;;;215.55;204.80;;;;;;;;;;5013793;28;20039;-63
2023/06/24 01:43:42;;;;;;;;;;;;;;;;;;5010226;28;20113;-63
2023/06/24 01:46:09;;;;;;;270.02;256.27;;;;;;;;;;5013085;28;19925;-63
2023/06/24 01:48:36;;;;;;;321.95;305.08;;;;;;;;;;5011175;28;20048;-62
2023/06/24 01:51:07;;;;;;;331.73;314.30;;;;;;;;;;5011436;28;20049;-63
2023/06/24 01:53:36;;;;;;;328.20;310.88;;;;;;;;;;5012449;28;20403;-62
2023/06/24 01:56:04;;;;;;;350.05;331.52;;;;;;;;;;5012891;28;20037;-63
2023/06/24 01:58:31;;;;;;;360.58;341.33;;;;;;;;;;5011520;28;20115;-63
2023/06/24 02:00:58;;;;;;;353.35;334.50;;;;;;;;;;5009603;28;20104;-63
2023/06/24 02:03:25;;;;;;;359.95;340.65;;;;;;;;;;5012760;28;20368;-63
2023/06/24 02:05:52;;;;;;;346.33;327.80;;;;;;;;;;5013373;28;20388;-63
2023/06/24 02:08:21;;;;;;;352.00;333.38;;;;;;;;;;5013198;28;20451;-63
2023/06/24 02:10:47;;;;;;;362.65;343.08;;;;;;;;;;5009177;28;20575;-63
2023/06/24 02:13:13;;;;;;;343.00;324.75;;;;;;;;;;5015124;28;20034;-63
2023/06/24 02:15:40;;;;;;;332.00;314.30;;;;;;;;;;5012369;28;20045;-62
2023/06/24 02:18:09;;;;;;;326.33;309.13;;;;;;;;;;5013486;28;20044;-63
2023/06/24 02:20:36;;;;;;;292.20;276.90;;;;;;;;;;5011845;28;20042;-62
2023/06/24 02:23:02;;;;;;;275.23;260.73;;;;;;;;;;5012780;28;20060;-62
2023/06/24 02:25:28;;;;;;;251.07;238.07;;;;;;;;;;5014579;28;20050;-62
2023/06/24 02:27:55;;;;;;;243.07;230.73;;;;;;;;;;5011400;28;20466;-62
2023/06/24 02:30:24;;;;;;;202.38;192.15;;;;;;;;;;5014450;28;20318;-63
2023/06/24 02:32:49;;;;;;;159.77;151.70;;;;;;;;;;5015223;28;20442;-61
2023/06/24 02:35:14;;;;;;;154.18;146.18;;;;;;;;;;5014912;28;20029;-62
2023/06/24 02:37:40;;;;;;;147.05;139.68;;;;;;;;;;5015415;28;20037;-62
2023/06/24 02:40:08;;;;;;;165.35;156.95;;;;;;;;;;5019334;28;20038;-62
2023/06/24 02:42:33;;;;;;;174.15;165.27;;;;;;;;;;5019176;28;20045;-62
2023/06/24 02:44:59;;;;;;;144.55;137.25;;;;;;;;;;5011835;28;20038;-62
2023/06/24 02:47:26;;;;;;;155.80;147.90;;;;;;;;;;5013136;28;20478;-62
2023/06/24 02:49:53;;;;;;;117.93;111.93;;;;;;;;;;5014009;28;20038;-62
2023/06/24 02:52:19;;;;;;;125.15;118.63;;;;;;;;;;5015403;28;20087;-63
2023/06/24 02:54:45;;;;;;;120.60;114.35;;;;;;;;;;5016281;28;20052;-62
2023/06/24 02:57:11;;;;;;;128.82;122.05;;;;;;;;;;5016884;28;20473;-62
2023/06/24 02:59:37;;;;;;;185.52;175.88;;;;;;;;;;5017056;28;20137;-62
2023/06/24 03:02:04;;;;;;;191.65;181.73;;;;;;;;;;5023202;28;20472;-62
2023/06/24 03:04:30;;;;;;;167.48;158.85;;;;;;;;;;5014857;28;20045;-61
2023/06/24 03:06:56;;;;;;;140.30;133.02;;;;;;;;;;5012400;28;20467;-61
2023/06/24 03:09:22;;;;;;;140.23;132.95;;;;;;;;;;5016824;28;20041;-62
2023/06/24 03:11:48;;;;;;;127.22;120.57;;;;;;;;;;5016324;28;20326;-62
2023/06/24 03:14:13;;;;;;;121.30;114.97;;;;;;;;;;5014098;28;20037;-62
2023/06/24 03:16:39;;;;;;;126.60;119.97;;;;;;;;;;5015106;28;20114;-62
2023/06/24 03:19:05;;;;;;;108.93;103.20;;;;;;;;;;5016055;28;20414;-62
2023/06/24 03:21:30;;;;;;;103.80;98.35;;;;;;;;;;5013682;28;20458;-61
2023/06/24 03:23:56;;;;;;;106.05;100.47;;;;;;;;;;5010385;28;20042;-62
2023/06/24 03:26:22;;;;;;;105.45;100.03;;;;;;;;;;5012692;28;20052;-62
2023/06/24 03:28:47;;;;;;;112.63;106.78;;;;;;;;;;5016985;28;20641;-62
2023/06/24 03:31:15;;;;;;;90.18;85.50;;;;;;;;;;5016319;28;20044;-62
2023/06/24 03:33:44;;;;;;;82.95;78.50;;;;;;;;;;5013968;28;20029;-61
2023/06/24 03:36:10;;;;;;;63.78;60.45;;;;;;;;;;5018155;28;20048;-61
2023/06/24 03:38:35;;;;;;;48.22;45.63;;;;;;;;;;5015166;28;20411;-62
2023/06/24 03:41:01;;;;;;;45.25;42.90;;;;;;;;;;5013058;28;20452;-62
2023/06/24 03:43:26;;;;;;;43.88;41.50;;;;;;;;;;5014321;28;20037;-62
2023/06/24 03:45:51;;;;;;;53.97;51.08;;;;;;;;;;5013846;28;20033;-62
2023/06/24 03:48:17;;;;;;;48.97;46.25;;;;;;;;;;5015426;28;20037;-62
2023/06/24 03:50:42;;;;;;;31.23;29.58;;;;;;;;;;5015244;28;20039;-62
2023/06/24 03:53:07;;;;;;;35.50;33.65;;;;;;;;;;5014744;28;20034;-62
2023/06/24 03:55:33;;;;;;;27.33;25.73;;;;;;;;;;5016839;28;20042;-62
2023/06/24 03:57:58;;;;;;;27.27;25.55;;;;;;;;;;5012938;28;20033;-62
2023/06/24 04:00:23;;;;;;;38.20;35.95;;;;;;;;;;5013733;28;20471;-59
2023/06/24 04:02:49;;;;;;;38.10;36.08;;;;;;;;;;5014205;28;20535;-59
2023/06/24 04:05:15;;;;;;;35.55;33.58;;;;;;;;;;5014279;28;20061;-59
2023/06/24 04:07:41;;;;;;;40.55;38.42;;;;;;;;;;5011532;28;20283;-59
2023/06/24 04:10:08;;;;;;;28.15;26.65;;;;;;;;;;5015033;28;20325;-59
2023/06/24 04:12:35;;;;;;;37.40;35.38;;;;;;;;;;5017782;28;20038;-58
2023/06/24 04:15:05;;;;;;;47.40;44.95;;;;;;;;;;5012206;28;20391;-58
2023/06/24 04:17:30;;;;;;;40.55;38.38;;;;;;;;;;5011125;28;20029;-59
2023/06/24 04:19:56;;;;;;;64.63;61.28;;;;;;;;;;5012774;28;20041;-59
2023/06/24 04:22:22;;;;;;;52.45;49.75;;;;;;;;;;5011404;28;20094;-59
2023/06/24 04:24:47;;;;;;;50.60;47.97;;;;;;;;;;5010546;28;20045;-59
2023/06/24 04:27:13;;;;;;;62.45;59.22;;;;;;;;;;5010655;28;20126;-59
2023/06/24 04:29:38;;;;;;;70.07;66.47;;;;;;;;;;5014321;28;20033;-59
2023/06/24 04:32:04;;;;;;;73.40;69.65;;;;;;;;;;5010136;28;20048;-59
2023/06/24 04:34:29;;;;;;;60.42;57.15;;;;;;;;;;5014955;28;20034;-58
2023/06/24 04:36:54;;;;;;;51.17;48.53;;;;;;;;;;5013528;28;20463;-59
2023/06/24 04:39:20;;;;;;;48.92;45.65;;;;;;;;;;5012052;28;20029;-59
2023/06/24 04:41:46;;;;;;;40.15;38.05;;;;;;;;;;5012313;28;20044;-63
2023/06/24 04:44:12;;;;;;;54.88;52.00;;;;;;;;;;5012124;28;20037;-59
2023/06/24 04:46:37;;;;;;;59.78;56.75;;;;;;;;;;5009134;28;20431;-59
2023/06/24 04:49:03;;;;;;;81.40;77.25;;;;;;;;;;5012063;28;20452;-59
2023/06/24 04:51:28;;;;;;;66.22;62.28;;;;;;;;;;5013988;28;20030;-59
2023/06/24 04:53:55;;;;;;;33.42;31.60;;;;;;;;;;5013782;28;20112;-58
2023/06/24 04:56:20;;;;;;;28.45;26.90;;;;;;;;;;5010495;28;20037;-59
2023/06/24 04:58:45;;;;;;;22.40;21.13;;;;;;;;;;5010713;28;20037;-58
2023/06/24 05:01:11;;;;;;;22.15;20.92;;;;;;;;;;5009415;28;20045;-58
2023/06/24 05:03:37;;;;;;;22.48;21.20;;;;;;;;;;5015323;28;20034;-58
2023/06/24 05:06:02;;;;;;;18.75;17.58;;;;;;;;;;5016124;28;20038;-59
2023/06/24 05:08:27;;;;;;;17.88;16.73;;;;;;;;;;5017258;28;20117;-59
2023/06/24 05:10:53;;;;;;;16.65;15.65;;;;;;;;;;5013317;28;20084;-59
2023/06/24 05:13:18;;;;;;;17.35;16.35;;;;;;;;;;5013243;28;20033;-59
2023/06/24 05:15:43;;;;;;;17.35;16.02;;;;;;;;;;5011856;28;20038;-58
2023/06/24 05:18:09;;;;;;;17.10;16.10;;;;;;;;;;5010692;28;20040;-59
2023/06/24 05:20:34;;;;;;;15.90;14.90;;;;;;;;;;5013927;28;20106;-58
2023/06/24 05:22:59;;;;;;;17.77;16.73;;;;;;;;;;5010876;28;20037;-58
2023/06/24 05:25:25;;;;;;;18.00;16.90;;;;;;;;;;5010283;28;20070;-58
2023/06/24 05:27:50;;;;;;;17.50;16.50;;;;;;;;;;5009781;28;20037;-59
2023/06/24 05:30:17;;;;;;;17.27;16.17;;;;;;;;;;5011443;28;20577;-59
2023/06/24 05:32:42;;;;;;;19.50;18.30;;;;;;;;;;5009853;28;20116;-59
2023/06/24 05:35:08;;;;;;;17.45;16.45;;;;;;;;;;5011022;28;20538;-59
2023/06/24 05:37:34;;;;;;;23.10;21.70;;;;;;;;;;5014536;28;20029;-59
2023/06/24 05:40:01;;;;;;;18.27;17.25;;;;;;;;;;5012809;28;20050;-59
2023/06/24 05:42:26;;;;;;;19.50;18.33;;;;;;;;;;5010723;28;20029;-58
2023/06/24 05:44:52;;;;;;;18.45;17.25;;;;;;;;;;5016844;28;20049;-59
2023/06/24 05:47:17;;;;;;;22.52;21.13;;;;;;;;;;5009204;28;20970;-59
2023/06/24 05:49:43;;;;;;;20.05;18.95;;;;;;;;;;5010874;28;20041;-59
2023/06/24 05:52:08;;;;;;;18.48;17.38;;;;;;;;;;5010928;28;20030;-59
2023/06/24 05:54:33;;;;;;;18.92;17.85;;;;;;;;;;5013259;28;20468;-59
2023/06/24 05:56:59;;;;;;;20.27;19.08;;;;;;;;;;5013107;28;20037;-58
2023/06/24 05:59:24;;;;;;;18.65;17.55;;;;;;;;;;5013118;28;20127;-58
2023/06/24 06:01:49;;;;;;;19.88;18.70;;;;;;;;;;5010475;28;20358;-59
2023/06/24 06:04:15;;;;;;;21.65;20.38;;;;;;;;;;5012118;28;20111;-60
2023/06/24 06:06:40;;;;;;;27.65;26.15;;;;;;;;;;5012824;28;20044;-59
2023/06/24 06:09:06;;;;;;;19.42;18.13;;;;;;;;;;5008999;28;20044;-59
2023/06/24 06:11:31;;;;;;;22.75;21.15;;;;;;;;;;5019048;28;20030;-59
2023/06/24 06:13:56;;;;;;;31.67;29.77;;;;;;;;;;5013722;28;20042;-59
2023/06/24 06:16:22;;;;;;;19.83;18.73;;;;;;;;;;5013964;28;20034;-59
2023/06/24 06:18:47;;;;;;;23.70;22.40;;;;;;;;;;5011400;28;20034;-60
2023/06/24 06:21:12;;;;;;;29.95;28.25;;;;;;;;;;5012533;28;20518;-60
2023/06/24 06:23:38;;;;;;;24.52;23.15;;;;;;;;;;5012271;28;20456;-60
2023/06/24 06:26:03;;;;;;;29.10;27.40;;;;;;;;;;5011102;28;20130;-60
2023/06/24 06:28:28;;;;;;;26.50;24.98;;;;;;;;;;5025742;28;21151;-59
2023/06/24 06:30:54;;;;;;;21.63;20.40;;;;;;;;;;5016322;28;20038;-60
2023/06/24 06:33:19;;;;;;;20.23;18.73;;;;;;;;;;5013587;28;20428;-59
2023/06/24 06:35:45;;;;;;;15.95;15.00;;;;;;;;;;5013052;28;20048;-60
2023/06/24 06:38:10;;;;;;;19.98;18.85;;;;;;;;;;5013259;28;20041;-60
2023/06/24 06:40:35;;;;;;;16.15;15.15;;;;;;;;;;5016000;28;20518;-60
2023/06/24 06:43:01;;;;;;;18.58;17.52;;;;;;;;;;5015140;28;20050;-59
2023/06/24 06:45:26;;;;;;;23.17;21.67;;;;;;;;;;5008715;28;20038;-60
2023/06/24 06:47:51;;;;;;;24.23;22.58;;;;;;;;;;5011049;28;20050;-60
2023/06/24 06:50:17;;;;;;;17.58;16.58;;;;;;;;;;5013358;28;20379;-60
2023/06/24 06:52:42;;;;;;;19.45;18.35;;;;;;;;;;5014664;28;20037;-60
2023/06/24 06:55:08;;;;;;;20.00;18.75;;;;;;;;;;5012236;28;20065;-59
2023/06/24 06:57:33;;;;;;;19.67;18.55;;;;;;;;;;5011779;28;20527;-59
2023/06/24 06:59:58;;;;;;;19.25;18.05;;;;;;;;;;5013361;28;20140;-60
2023/06/24 07:02:24;;;;;;;17.08;16.08;;;;;;;;;;5014031;28;20045;-60
2023/06/24 07:04:50;;;;;;;18.27;17.20;;;;;;;;;;5013237;28;20033;-60
2023/06/24 07:07:16;;;;;;;18.70;17.55;;;;;;;;;;5012409;28;20372;-60
2023/06/24 07:09:41;;;;;;;18.00;17.00;;;;;;;;;;5011600;28;20045;-60
2023/06/24 07:12:07;;;;;;;19.83;18.73;;;;;;;;;;5014565;28;20251;-61
2023/06/24 07:14:33;;;;;;;28.40;26.73;;;;;;;;;;5016292;28;20459;-62
2023/06/24 07:16:58;;;;;;;28.35;26.83;;;;;;;;;;5015289;28;20041;-61
2023/06/24 07:19:24;;;;;;;20.85;19.65;;;;;;;;;;5017284;28;20041;-60
2023/06/24 07:21:49;;;;;;;37.05;35.03;;;;;;;;;;5013148;28;20522;-60
2023/06/24 07:24:14;;;;;;;36.10;34.10;;;;;;;;;;5015608;28;20034;-60
2023/06/24 07:26:40;;;;;;;35.03;33.15;;;;;;;;;;5013812;28;20471;-60
2023/06/24 07:29:07;;;;;;;43.22;40.85;;;;;;;;;;5014225;28;20557;-60
2023/06/24 07:31:32;;;;;;;131.40;124.57;;;;;;;;;;5014748;28;20439;-60
2023/06/24 07:33:57;;;;;;;122.47;116.32;;;;;;;;;;5016415;28;20116;-59
2023/06/24 07:36:23;;;;;;;118.07;112.28;;;;;;;;;;5011349;28;20120;-67
2023/06/24 07:38:48;;;;;;;151.82;144.38;;;;;;;;;;5013822;28;20116;-67
2023/06/24 07:41:13;;;;;;;131.18;124.68;;;;;;;;;;5017858;28;20129;-68
2023/06/24 07:43:39;;;;;;;123.63;117.47;;;;;;;;;;5015958;28;20099;-68
2023/06/24 07:46:04;;;;;;;151.38;143.88;;;;;;;;;;5015060;28;20038;-68
2023/06/24 07:48:30;;;;;;;148.48;141.18;;;;;;;;;;5013556;28;20113;-68
2023/06/24 07:50:55;;;;;;;139.73;132.82;;;;;;;;;;5011981;28;20038;-67
2023/06/24 07:53:20;;;;;;;132.52;126.03;;;;;;;;;;5013606;28;20144;-67
2023/06/24 07:55:46;;;;;;;135.57;128.73;;;;;;;;;;5013665;28;20095;-60
2023/06/24 07:58:11;;;;;;;100.00;94.90;;;;;;;;;;5014325;28;20511;-59
2023/06/24 08:00:36;;;;;;;152.00;144.57;;;;;;;;;;5012649;28;20033;-59
2023/06/24 08:03:03;;;;;;;154.30;146.70;;;;;;;;;;5011485;28;20029;-59
2023/06/24 08:05:28;;;;;;;128.43;122.05;;;;;;;;;;5015644;28;20487;-59
2023/06/24 08:07:54;;;;;;;173.27;164.65;;;;;;;;;;5012672;28;20037;-59
2023/06/24 08:10:19;;;;;;;47.50;45.08;;;;;;;;;;5013016;28;20034;-59
2023/06/24 08:12:45;;;;;;;158.15;150.43;;;;;;;;;;5012025;28;20029;-59
2023/06/24 08:15:10;;;;;;;63.15;59.88;;;;;;;;;;5012851;28;20034;-60
2023/06/24 08:17:36;;;;;;;52.80;49.90;;;;;;;;;;5012664;28;20099;-60
2023/06/24 08:20:03;;;;;;;33.17;31.38;;;;;;;;;;5014089;28;20519;-59
2023/06/24 08:22:28;;;;;;;57.45;54.50;;;;;;;;;;5011976;28;20483;-60
2023/06/24 08:24:54;;;;;;;29.90;28.30;;;;;;;;;;5016267;28;20108;-59
2023/06/24 08:27:19;;;;;;;78.72;74.65;;;;;;;;;;5013581;28;20459;-67
2023/06/24 08:29:45;;;;;;;59.00;55.95;;;;;;;;;;5017143;28;20064;-59
2023/06/24 08:32:10;;;;;;;25.15;23.75;;;;;;;;;;5011380;28;20038;-69
2023/06/24 08:34:35;;;;;;;38.45;36.42;;;;;;;;;;5015641;28;20064;-59
2023/06/24 08:37:01;;;;;;;25.67;24.27;;;;;;;;;;5011007;28;20922;-67
2023/06/24 08:39:26;;;;;;;51.15;48.47;;;;;;;;;;5015025;28;20433;-66
2023/06/24 08:41:52;;;;;;;45.15;42.60;;;;;;;;;;5012784;28;20880;-68
2023/06/24 08:44:18;;;;;;;141.77;134.77;;;;;;;;;;5015423;28;20037;-66
2023/06/24 08:46:43;;;;;;;23.35;21.95;;;;;;;;;;5012623;28;20376;-67
2023/06/24 08:49:24;;;;;;;24.50;23.05;;;;;;;;;;5014030;28;20034;-68
2023/06/24 08:51:55;;;;;;;85.68;81.28;;;;;;;;;;5013385;28;20060;-58
2023/06/24 08:54:22;;;;;;;174.15;165.60;;;;;;;;;;5012630;28;20065;-58
2023/06/24 08:56:47;;;;;;;51.15;48.58;;;;;;;;;;5012302;28;20052;-58
2023/06/24 08:59:12;;;;;;;42.70;40.50;;;;;;;;;;5013559;28;20042;-59
2023/06/24 09:01:38;;;;;;;60.88;57.78;;;;;;;;;;5014357;28;20043;-61
2023/06/24 09:04:04;;;;;;;77.50;73.65;;;;;;;;;;5014069;28;20380;-57
2023/06/24 09:06:31;;;;;;;78.70;74.65;;;;;;;;;;5013846;28;20080;-68
2023/06/24 09:08:57;;;;;;;141.30;134.40;;;;;;;;;;5010557;28;20120;-66
2023/06/24 09:11:27;;;;;;;219.55;208.80;;;;;;;;;;5011804;28;20037;-58
2023/06/24 09:13:56;;;;;;;;;;;;;;;;;;5015316;28;20515;-59
2023/06/24 09:16:22;;;;;;;162.00;154.10;;;;;;;;;;5012200;28;19987;-59
2023/06/24 09:18:49;;;;;;;185.32;176.25;;;;;;;;;;5015666;28;20049;-59
2023/06/24 09:21:24;;;;;;;199.32;189.63;;;;;;;;;;5014016;28;20329;-67
2023/06/24 09:23:54;;;;;;;182.93;173.98;;;;;;;;;;5013866;28;20025;-68
2023/06/24 09:26:22;;;;;;;227.30;216.27;;;;;;;;;;5014185;28;20121;-67
2023/06/24 09:28:49;;;;;;;166.07;157.82;;;;;;;;;;5011504;28;20037;-59
2023/06/24 09:31:14;;;;;;;158.38;150.57;;;;;;;;;;5008456;28;20443;-58
2023/06/24 09:33:40;;;;;;;59.22;56.13;;;;;;;;;;5009654;28;20044;-58
2023/06/24 09:36:05;;;;;;;58.22;55.25;;;;;;;;;;5015542;28;20037;-58
2023/06/24 09:38:36;;;;;;;69.60;66.13;;;;;;;;;;5015044;28;20049;-59
2023/06/24 09:41:05;;;;;;;57.72;54.83;;;;;;;;;;5011471;28;20034;-66
2023/06/24 09:43:34;;;;;;;61.67;58.60;;;;;;;;;;5011141;28;20025;-66
2023/06/24 09:46:02;;;;;;;88.05;83.50;;;;;;;;;;5009876;28;20045;-65
2023/06/24 09:48:27;;;;;;;85.50;81.25;;;;;;;;;;5013836;28;20520;-64
2023/06/24 09:50:57;;;;;;;228.52;217.40;;;;;;;;;;5014076;28;20041;-66
2023/06/24 09:53:23;;;;;;;99.68;94.75;;;;;;;;;;5013443;28;20060;-66
2023/06/24 09:55:50;;;;;;;54.58;51.83;;;;;;;;;;5013264;28;20711;-65
2023/06/24 09:58:17;;;;;;;119.43;113.53;;;;;;;;;;5013165;28;20042;-64
2023/06/24 10:00:42;;;;;;;95.38;90.35;;;;;;;;;;5011516;28;20118;-64
2023/06/24 10:03:08;;;;;;;100.28;95.30;;;;;;;;;;5013603;28;20552;-66
2023/06/24 10:05:34;;;;;;;70.97;67.25;;;;;;;;;;5014232;28;20051;-66
2023/06/24 10:07:59;;;;;;;71.13;67.57;;;;;;;;;;5010646;28;20471;-65
2023/06/24 10:10:24;;;;;;;78.07;74.20;;;;;;;;;;5013034;28;20536;-67
2023/06/24 10:12:50;;;;;;;125.50;119.32;;;;;;;;;;5015174;28;20788;-66
2023/06/24 10:15:16;;;;;;;110.72;105.22;;;;;;;;;;5015157;28;20061;-67
2023/06/24 10:17:41;;;;;;;103.07;97.85;;;;;;;;;;5015281;28;20638;-67
2023/06/24 10:20:07;;;;;;;116.32;110.57;;;;;;;;;;5016940;28;20535;-65
2023/06/24 10:22:33;;;;;;;96.28;91.47;;;;;;;;;;5012480;28;20100;-67
2023/06/24 10:25:04;;;;;;;102.32;97.25;;;;;;;;;;5012925;28;20040;-66
2023/06/24 10:27:38;;;;;;;105.25;100.05;;;;;;;;;;5020022;28;20715;-67
2023/06/24 10:30:04;;;;;;;116.38;110.68;;;;;;;;;;5010326;28;20530;-66
2023/06/24 10:32:42;;;;;;;80.57;76.57;;;;;;;;;;5013471;28;20045;-67
2023/06/24 10:35:22;;;;;;;67.55;64.15;;;;;;;;;;5011614;28;20052;-66
2023/06/24 10:37:53;;;;;;;;;;;;;;;;;;5011948;28;20048;-67
2023/06/24 10:40:38;;;;;;;88.47;84.07;;;;;;;;;;5010222;28;19917;-66
2023/06/24 10:43:23;;;;;;;89.93;85.38;;;;;;;;;;5009263;28;20360;-67
2023/06/24 10:45:53;;;;;;;106.70;101.47;;;;;;;;;;5013520;28;20498;-68
2023/06/24 10:48:21;;;;;;;111.28;105.80;;;;;;;;;;5018481;28;21600;-67
2023/06/24 10:50:47;;;;;;;119.60;113.68;;;;;;;;;;5010100;28;20033;-67
2023/06/24 10:53:13;;;;;;;110.75;105.28;;;;;;;;;;5007056;28;20018;-66
2023/06/24 10:55:39;;;;;;;131.30;124.78;;;;;;;;;;5017463;28;20049;-68
2023/06/24 10:58:12;;;;;;;77.25;73.38;;;;;;;;;;5014190;28;20451;-67
2023/06/24 11:00:38;;;;;;;84.63;80.40;;;;;;;;;;5012009;28;20045;-66
2023/06/24 11:03:11;;;;;;;66.85;63.47;;;;;;;;;;5014367;28;20057;-67
2023/06/24 11:05:41;;;;;;;64.80;61.47;;;;;;;;;;5014062;28;20095;-67
2023/06/24 11:08:07;;;;;;;59.90;56.85;;;;;;;;;;5008682;28;20046;-67
2023/06/24 11:10:32;;;;;;;64.18;60.92;;;;;;;;;;5013869;28;20029;-66
2023/06/24 11:13:04;;;;;;;73.80;70.10;;;;;;;;;;5012622;28;20025;-66
2023/06/24 11:15:31;;;;;;;68.60;65.13;;;;;;;;;;5014620;28;20041;-66
2023/06/24 11:17:57;;;;;;;79.18;75.30;;;;;;;;;;5022145;28;20037;-66
2023/06/24 11:20:22;;;;;;;83.60;79.47;;;;;;;;;;5015610;28;20058;-66
2023/06/24 11:22:48;;;;;;;84.93;80.65;;;;;;;;;;5015072;28;20103;-67
2023/06/24 11:25:18;;;;;;;75.90;72.10;;;;;;;;;;5015157;28;20060;-67
2023/06/24 11:27:44;;;;;;;74.97;71.22;;;;;;;;;;5012772;28;20034;-66
2023/06/24 11:30:11;;;;;;;77.65;73.72;;;;;;;;;;5015103;28;20040;-67
2023/06/24 11:32:37;;;;;;;78.45;74.53;;;;;;;;;;5015703;28;20033;-66
2023/06/24 11:35:05;;;;;;;81.13;76.97;;;;;;;;;;5014747;28;20091;-68
2023/06/24 11:37:33;;;;;;;81.57;77.53;;;;;;;;;;5016470;28;20096;-66
2023/06/24 11:40:06;;;;;;;39.20;37.17;;;;;;;;;;5014080;28;20068;-65
2023/06/24 11:42:39;;;;;;;36.42;34.50;;;;;;;;;;5014106;28;20033;-66
2023/06/24 11:45:12;;;;;;;41.63;39.42;;;;;;;;;;5012787;28;20030;-66
2023/06/24 11:47:39;;;;;;;32.63;30.92;;;;;;;;;;5017024;28;20108;-65
2023/06/24 11:50:06;;;;;;;73.20;69.38;;;;;;;;;;5013910;28;20609;-66
2023/06/24 11:52:43;;;;;;;45.95;43.60;;;;;;;;;;5010722;28;20037;-66
2023/06/24 11:55:20;;;;;;;46.42;44.03;;;;;;;;;;5014176;28;20132;-66
2023/06/24 11:57:54;;;;;;;60.40;57.40;;;;;;;;;;5015528;28;20073;-67
2023/06/24 12:00:23;;;;;;;49.00;46.50;;;;;;;;;;5014560;28;20037;-65
2023/06/24 12:02:53;;;;;;;60.75;57.72;;;;;;;;;;5011696;28;20045;-65
2023/06/24 12:05:29;;;;;;;65.50;62.20;;;;;;;;;;5015075;28;20045;-65
2023/06/24 12:07:56;;;;;;;76.45;72.65;;;;;;;;;;5012737;28;20472;-65
2023/06/24 12:10:22;;;;;;;82.93;78.82;;;;;;;;;;5008782;28;20113;-65
2023/06/24 12:12:48;;;;;;;76.57;72.78;;;;;;;;;;5010573;28;20048;-65
2023/06/24 12:15:13;;;;;;;92.72;88.05;;;;;;;;;;5010716;28;20041;-65
2023/06/24 12:17:39;;;;;;;84.03;79.85;;;;;;;;;;5014520;28;20099;-66
2023/06/24 12:20:05;;;;;;;90.25;85.78;;;;;;;;;;5013527;28;20100;-63
2023/06/24 12:22:30;;;;;;;91.10;86.43;;;;;;;;;;5012372;28;20036;-65
2023/06/24 12:24:56;;;;;;;99.43;94.50;;;;;;;;;;5013863;28;20027;-66
2023/06/24 12:27:21;;;;;;;118.90;113.00;;;;;;;;;;5013253;28;20116;-64
2023/06/24 12:29:46;;;;;;;99.68;94.78;;;;;;;;;;5014079;28;20120;-65
2023/06/24 12:32:12;;;;;;;76.82;73.00;;;;;;;;;;5011743;28;20037;-64
2023/06/24 12:34:37;;;;;;;84.60;80.40;;;;;;;;;;5011363;28;20121;-67
2023/06/24 12:37:03;;;;;;;68.32;64.93;;;;;;;;;;5008932;28;20033;-66
2023/06/24 12:39:28;;;;;;;75.50;71.70;;;;;;;;;;5011569;28;20654;-66
2023/06/24 12:41:53;;;;;;;54.83;51.60;;;;;;;;;;5015182;28;20065;-66
2023/06/24 12:44:19;;;;;;;47.17;44.78;;;;;;;;;;5015868;28;20033;-66
2023/06/24 12:46:44;;;;;;;54.17;51.42;;;;;;;;;;5013406;28;20052;-64
2023/06/24 12:49:09;;;;;;;56.95;54.03;;;;;;;;;;5012904;28;20037;-65
2023/06/24 12:51:35;;;;;;;68.15;64.78;;;;;;;;;;5010517;28;20033;-63
2023/06/24 12:54:00;;;;;;;40.53;38.42;;;;;;;;;;5015199;28;20045;-67
2023/06/24 12:56:25;;;;;;;36.55;34.65;;;;;;;;;;5017859;28;20033;-66
2023/06/24 12:58:51;;;;;;;35.42;33.53;;;;;;;;;;5014922;28;20040;-65
2023/06/24 13:01:16;;;;;;;38.85;36.80;;;;;;;;;;5012622;28;20116;-66
2023/06/24 13:03:41;;;;;;;52.88;50.20;;;;;;;;;;5013948;28;20034;-65
2023/06/24 13:06:07;;;;;;;49.05;46.47;;;;;;;;;;5015152;28;20233;-66
2023/06/24 13:08:32;;;;;;;34.65;32.85;;;;;;;;;;5010441;28;20112;-66
2023/06/24 13:10:57;;;;;;;33.10;31.38;;;;;;;;;;5012570;28;20432;-66
2023/06/24 13:13:23;;;;;;;45.03;42.50;;;;;;;;;;5016928;28;20332;-66
2023/06/24 13:15:48;;;;;;;43.10;40.70;;;;;;;;;;5013309;28;20410;-66
2023/06/24 13:18:13;;;;;;;50.80;48.10;;;;;;;;;;5014267;28;20598;-66
2023/06/24 13:20:39;;;;;;;44.63;42.33;;;;;;;;;;5003990;28;20541;-67
2023/06/24 13:23:04;;;;;;;50.22;47.65;;;;;;;;;;5012835;28;20041;-67
2023/06/24 13:25:29;;;;;;;69.32;65.85;;;;;;;;;;5014586;28;20140;-65
2023/06/24 13:27:55;;;;;;;73.47;69.82;;;;;;;;;;5014066;28;20033;-66
2023/06/24 13:30:21;;;;;;;70.80;67.25;;;;;;;;;;5019575;28;20051;-65
2023/06/24 13:32:48;;;;;;;59.25;56.25;;;;;;;;;;5010235;28;20056;-65
2023/06/24 13:35:13;;;;;;;71.68;68.07;;;;;;;;;;5012338;28;20136;-65
2023/06/24 13:37:38;;;;;;;74.60;70.90;;;;;;;;;;5014116;28;20143;-65
2023/06/24 13:40:05;;;;;;;64.72;61.40;;;;;;;;;;5012740;28;20085;-65
2023/06/24 13:42:31;;;;;;;32.38;30.63;;;;;;;;;;5010724;28;20045;-64
2023/06/24 13:44:56;;;;;;;54.95;52.17;;;;;;;;;;5013952;28;20087;-66
2023/06/24 13:47:22;;;;;;;41.42;39.28;;;;;;;;;;5012688;28;20052;-64
2023/06/24 13:49:48;;;;;;;40.13;38.08;;;;;;;;;;5012927;28;20041;-64
2023/06/24 13:52:13;;;;;;;38.38;36.35;;;;;;;;;;5012436;28;20668;-65
2023/06/24 13:54:39;;;;;;;38.33;36.33;;;;;;;;;;5014389;28;20033;-64
2023/06/24 13:57:04;;;;;;;40.70;38.60;;;;;;;;;;5010786;28;20029;-65
2023/06/24 13:59:29;;;;;;;42.65;40.45;;;;;;;;;;5015045;28;20033;-65
2023/06/24 14:01:55;;;;;;;46.17;43.83;;;;;;;;;;5014123;28;20068;-65
2023/06/24 14:04:20;;;;;;;52.33;49.65;;;;;;;;;;5010679;28;20034;-65
2023/06/24 14:06:46;;;;;;;54.30;51.58;;;;;;;;;;5013659;28;20124;-64
2023/06/24 14:09:12;;;;;;;55.35;52.55;;;;;;;;;;5013417;28;20121;-65